Portada
METAR-TAF:

METAR-TAF

Aeroports :

Istre, França

latitud: 43-31N, longitud: 004-56E, altitud: 23 m

Observació

L'informe es va fer fa 2 hores i 34 minuts, a les 05:00 UTC
Vent 4 kt del Nord
Temperatura 20°C
Humitat 100%
Pressió 1015 hPa
Visibilitat 10 km o més
sense núvols per sota de 1500 mi sense presència de cumulonimbus.

METAR: LFMI 210500Z AUTO 01004KT CAVOK 20/20 Q1015 NOSIG

Hora: 09:34 (07:34 UTC)

Pronòstic

L'informe es va fer fa 5 hores i 34 minuts, a les 02:00 UTC
Pronòstic vàlid del 21 a les 03 UTC al 22 a les 03 UTC
Vent 5 kt amb direcció variable
Visibilitat 10 km o més
sense núvols per sota de 1500 mi sense presència de cumulonimbus.
Temporalment
l' 21 a les 12 UTC al 21 a les 18 UTC
Vent 10 kt del Sud/Sud-Oest

TAF: LFMI 210200Z 2103/2203 VRB05KT CAVOK TEMPO 2112/2118 20010KT

Observacions i pronòstics meteorològics de més de 4000 aeroports (METAR i TAF).

Les estacions disponibles són els punts grocs i vermells al mapa.

Posi el ratolí al punt desitjat per veure el nom de l'estació.

Feu clic per veure les observacions i els pronòstics meteorològics.

Per canviar el mapa: feu clic els botons verds amb una creu de color negre per apropar; al botó verd amb un guió per allunyar la imatge; o en les fletxes verdes per a mapes adjacents.


METAR-TAF: